sensor_id;sensor_type;location;lat;lon;timestamp;P1;durP1;ratioP1;P2;durP2;ratioP2
8594;SDS011;4335;48.860;9.198;2022-10-04T00:02:22;11.30;;;7.77;;
8594;SDS011;4335;48.860;9.198;2022-10-04T00:05:03;8.50;;;7.53;;
8594;SDS011;4335;48.860;9.198;2022-10-04T00:07:33;9.30;;;7.80;;
8594;SDS011;4335;48.860;9.198;2022-10-04T00:10:06;10.40;;;7.70;;
8594;SDS011;4335;48.860;9.198;2022-10-04T00:12:44;10.57;;;7.87;;
8594;SDS011;4335;48.860;9.198;2022-10-04T00:15:16;9.80;;;6.53;;
8594;SDS011;4335;48.860;9.198;2022-10-04T00:17:58;8.97;;;7.47;;
8594;SDS011;4335;48.860;9.198;2022-10-04T00:23:24;9.13;;;7.07;;
8594;SDS011;4335;48.860;9.198;2022-10-04T00:25:54;10.07;;;7.27;;
8594;SDS011;4335;48.860;9.198;2022-10-04T00:31:14;9.07;;;6.53;;
8594;SDS011;4335;48.860;9.198;2022-10-04T00:33:43;8.50;;;7.37;;
8594;SDS011;4335;48.860;9.198;2022-10-04T00:36:33;7.60;;;6.57;;
8594;SDS011;4335;48.860;9.198;2022-10-04T00:39:16;10.53;;;7.73;;
8594;SDS011;4335;48.860;9.198;2022-10-04T00:41:53;9.27;;;6.73;;
8594;SDS011;4335;48.860;9.198;2022-10-04T00:44:29;12.70;;;8.83;;
8594;SDS011;4335;48.860;9.198;2022-10-04T00:47:11;9.40;;;7.43;;
8594;SDS011;4335;48.860;9.198;2022-10-04T00:49:47;9.17;;;6.57;;
8594;SDS011;4335;48.860;9.198;2022-10-04T00:52:18;7.40;;;6.40;;
8594;SDS011;4335;48.860;9.198;2022-10-04T00:54:50;7.50;;;5.90;;
8594;SDS011;4335;48.860;9.198;2022-10-04T00:57:21;9.37;;;6.67;;
8594;SDS011;4335;48.860;9.198;2022-10-04T00:59:52;7.13;;;5.53;;
8594;SDS011;4335;48.860;9.198;2022-10-04T01:02:24;8.43;;;5.70;;
8594;SDS011;4335;48.860;9.198;2022-10-04T01:04:56;6.30;;;5.70;;
8594;SDS011;4335;48.860;9.198;2022-10-04T01:07:29;5.87;;;5.17;;
8594;SDS011;4335;48.860;9.198;2022-10-04T01:09:59;5.47;;;4.70;;
8594;SDS011;4335;48.860;9.198;2022-10-04T01:12:42;4.90;;;4.40;;
8594;SDS011;4335;48.860;9.198;2022-10-04T01:15:13;6.47;;;4.83;;
8594;SDS011;4335;48.860;9.198;2022-10-04T01:18:07;4.40;;;3.97;;
8594;SDS011;4335;48.860;9.198;2022-10-04T01:20:37;4.70;;;4.30;;
8594;SDS011;4335;48.860;9.198;2022-10-04T01:23:18;4.40;;;4.00;;
8594;SDS011;4335;48.860;9.198;2022-10-04T01:25:57;6.73;;;4.50;;
8594;SDS011;4335;48.860;9.198;2022-10-04T01:28:24;6.87;;;4.80;;
8594;SDS011;4335;48.860;9.198;2022-10-04T01:30:51;4.83;;;4.43;;
8594;SDS011;4335;48.860;9.198;2022-10-04T01:33:19;7.47;;;5.27;;
8594;SDS011;4335;48.860;9.198;2022-10-04T01:35:45;5.10;;;4.60;;
8594;SDS011;4335;48.860;9.198;2022-10-04T01:38:12;6.27;;;5.23;;
8594;SDS011;4335;48.860;9.198;2022-10-04T01:40:41;5.90;;;5.23;;
8594;SDS011;4335;48.860;9.198;2022-10-04T01:43:14;9.60;;;6.00;;
8594;SDS011;4335;48.860;9.198;2022-10-04T01:45:49;7.20;;;6.23;;
8594;SDS011;4335;48.860;9.198;2022-10-04T01:48:20;7.37;;;6.13;;
8594;SDS011;4335;48.860;9.198;2022-10-04T01:50:52;6.67;;;6.00;;
8594;SDS011;4335;48.860;9.198;2022-10-04T01:53:25;7.47;;;5.70;;
8594;SDS011;4335;48.860;9.198;2022-10-04T01:56:02;8.50;;;5.80;;
8594;SDS011;4335;48.860;9.198;2022-10-04T01:58:31;6.83;;;6.00;;
8594;SDS011;4335;48.860;9.198;2022-10-04T02:01:10;6.93;;;5.07;;
8594;SDS011;4335;48.860;9.198;2022-10-04T02:03:43;8.07;;;5.13;;
8594;SDS011;4335;48.860;9.198;2022-10-04T02:06:25;10.80;;;5.60;;
8594;SDS011;4335;48.860;9.198;2022-10-04T02:08:57;9.37;;;5.50;;
8594;SDS011;4335;48.860;9.198;2022-10-04T02:11:27;7.50;;;5.23;;
8594;SDS011;4335;48.860;9.198;2022-10-04T02:13:55;7.37;;;5.73;;
8594;SDS011;4335;48.860;9.198;2022-10-04T02:16:24;7.70;;;5.50;;
8594;SDS011;4335;48.860;9.198;2022-10-04T02:19:00;9.00;;;5.77;;
8594;SDS011;4335;48.860;9.198;2022-10-04T02:21:28;6.33;;;4.87;;
8594;SDS011;4335;48.860;9.198;2022-10-04T02:23:56;6.30;;;5.50;;
8594;SDS011;4335;48.860;9.198;2022-10-04T02:26:23;6.70;;;4.90;;
8594;SDS011;4335;48.860;9.198;2022-10-04T02:28:50;6.83;;;4.93;;
8594;SDS011;4335;48.860;9.198;2022-10-04T02:31:23;5.97;;;5.07;;
8594;SDS011;4335;48.860;9.198;2022-10-04T02:34:08;6.13;;;4.97;;
8594;SDS011;4335;48.860;9.198;2022-10-04T02:36:35;5.73;;;5.00;;
8594;SDS011;4335;48.860;9.198;2022-10-04T02:39:04;5.50;;;4.60;;
8594;SDS011;4335;48.860;9.198;2022-10-04T02:41:39;4.93;;;4.43;;
8594;SDS011;4335;48.860;9.198;2022-10-04T02:44:10;6.40;;;4.33;;
8594;SDS011;4335;48.860;9.198;2022-10-04T02:46:47;7.30;;;5.03;;
8594;SDS011;4335;48.860;9.198;2022-10-04T02:49:20;5.50;;;3.90;;
8594;SDS011;4335;48.860;9.198;2022-10-04T02:51:52;5.63;;;4.40;;
8594;SDS011;4335;48.860;9.198;2022-10-04T02:54:28;6.63;;;4.20;;
8594;SDS011;4335;48.860;9.198;2022-10-04T02:57:00;6.67;;;4.87;;
8594;SDS011;4335;48.860;9.198;2022-10-04T02:59:28;8.07;;;4.70;;
8594;SDS011;4335;48.860;9.198;2022-10-04T03:01:57;5.30;;;4.17;;
8594;SDS011;4335;48.860;9.198;2022-10-04T03:04:26;5.53;;;4.77;;
8594;SDS011;4335;48.860;9.198;2022-10-04T03:06:56;6.73;;;5.37;;
8594;SDS011;4335;48.860;9.198;2022-10-04T03:09:25;5.53;;;4.43;;
8594;SDS011;4335;48.860;9.198;2022-10-04T03:11:52;6.73;;;5.83;;
8594;SDS011;4335;48.860;9.198;2022-10-04T03:14:20;7.17;;;5.30;;
8594;SDS011;4335;48.860;9.198;2022-10-04T03:16:50;9.13;;;5.53;;
8594;SDS011;4335;48.860;9.198;2022-10-04T03:19:22;10.33;;;5.47;;
8594;SDS011;4335;48.860;9.198;2022-10-04T03:21:51;8.90;;;5.40;;
8594;SDS011;4335;48.860;9.198;2022-10-04T03:24:26;5.97;;;4.93;;
8594;SDS011;4335;48.860;9.198;2022-10-04T03:27:04;7.50;;;5.50;;
8594;SDS011;4335;48.860;9.198;2022-10-04T03:29:34;6.10;;;5.07;;
8594;SDS011;4335;48.860;9.198;2022-10-04T03:32:05;5.87;;;5.07;;
8594;SDS011;4335;48.860;9.198;2022-10-04T03:34:32;5.63;;;5.10;;
8594;SDS011;4335;48.860;9.198;2022-10-04T03:37:01;10.60;;;5.63;;
8594;SDS011;4335;48.860;9.198;2022-10-04T03:39:31;6.00;;;5.40;;
8594;SDS011;4335;48.860;9.198;2022-10-04T03:42:02;5.47;;;4.93;;
8594;SDS011;4335;48.860;9.198;2022-10-04T03:44:32;7.73;;;5.67;;
8594;SDS011;4335;48.860;9.198;2022-10-04T03:46:59;6.13;;;5.20;;
8594;SDS011;4335;48.860;9.198;2022-10-04T03:49:30;6.97;;;5.50;;
8594;SDS011;4335;48.860;9.198;2022-10-04T03:52:00;6.47;;;5.37;;
8594;SDS011;4335;48.860;9.198;2022-10-04T03:54:27;7.60;;;5.00;;
8594;SDS011;4335;48.860;9.198;2022-10-04T03:56:55;6.73;;;5.60;;
8594;SDS011;4335;48.860;9.198;2022-10-04T03:59:25;10.07;;;7.17;;
8594;SDS011;4335;48.860;9.198;2022-10-04T04:01:57;12.00;;;8.40;;
8594;SDS011;4335;48.860;9.198;2022-10-04T04:04:35;13.57;;;6.30;;
8594;SDS011;4335;48.860;9.198;2022-10-04T04:07:11;6.03;;;5.43;;
8594;SDS011;4335;48.860;9.198;2022-10-04T04:09:44;6.73;;;5.80;;
8594;SDS011;4335;48.860;9.198;2022-10-04T04:12:16;6.63;;;4.43;;
8594;SDS011;4335;48.860;9.198;2022-10-04T04:14:47;6.50;;;5.53;;
8594;SDS011;4335;48.860;9.198;2022-10-04T04:17:16;7.93;;;5.97;;
8594;SDS011;4335;48.860;9.198;2022-10-04T04:20:02;8.60;;;6.27;;
8594;SDS011;4335;48.860;9.198;2022-10-04T04:22:32;9.53;;;6.47;;
8594;SDS011;4335;48.860;9.198;2022-10-04T04:25:02;9.77;;;6.37;;
8594;SDS011;4335;48.860;9.198;2022-10-04T04:27:34;6.60;;;5.90;;
8594;SDS011;4335;48.860;9.198;2022-10-04T04:30:04;7.97;;;5.87;;
8594;SDS011;4335;48.860;9.198;2022-10-04T04:32:34;9.43;;;5.73;;
8594;SDS011;4335;48.860;9.198;2022-10-04T04:35:05;8.17;;;5.93;;
8594;SDS011;4335;48.860;9.198;2022-10-04T04:37:54;6.73;;;5.67;;
8594;SDS011;4335;48.860;9.198;2022-10-04T04:40:40;6.10;;;5.23;;
8594;SDS011;4335;48.860;9.198;2022-10-04T04:43:14;10.57;;;7.27;;
8594;SDS011;4335;48.860;9.198;2022-10-04T04:45:43;10.73;;;7.60;;
8594;SDS011;4335;48.860;9.198;2022-10-04T04:48:14;10.57;;;6.27;;
8594;SDS011;4335;48.860;9.198;2022-10-04T04:50:47;9.97;;;7.73;;
8594;SDS011;4335;48.860;9.198;2022-10-04T04:53:19;7.07;;;5.77;;
8594;SDS011;4335;48.860;9.198;2022-10-04T04:55:48;6.20;;;5.47;;
8594;SDS011;4335;48.860;9.198;2022-10-04T04:58:18;7.23;;;5.80;;
8594;SDS011;4335;48.860;9.198;2022-10-04T05:00:53;7.20;;;5.60;;
8594;SDS011;4335;48.860;9.198;2022-10-04T05:03:27;7.97;;;6.70;;
8594;SDS011;4335;48.860;9.198;2022-10-04T05:05:59;10.00;;;6.37;;
8594;SDS011;4335;48.860;9.198;2022-10-04T05:08:32;8.67;;;5.90;;
8594;SDS011;4335;48.860;9.198;2022-10-04T05:11:00;9.53;;;6.17;;
8594;SDS011;4335;48.860;9.198;2022-10-04T05:13:33;8.37;;;6.10;;
8594;SDS011;4335;48.860;9.198;2022-10-04T05:16:09;9.87;;;5.20;;
8594;SDS011;4335;48.860;9.198;2022-10-04T05:18:39;7.03;;;5.60;;
8594;SDS011;4335;48.860;9.198;2022-10-04T05:21:12;7.93;;;6.57;;
8594;SDS011;4335;48.860;9.198;2022-10-04T05:23:48;6.33;;;5.20;;
8594;SDS011;4335;48.860;9.198;2022-10-04T05:26:16;6.83;;;6.13;;
8594;SDS011;4335;48.860;9.198;2022-10-04T05:28:49;8.13;;;7.17;;
8594;SDS011;4335;48.860;9.198;2022-10-04T05:31:28;8.00;;;5.20;;
8594;SDS011;4335;48.860;9.198;2022-10-04T05:34:02;7.43;;;5.67;;
8594;SDS011;4335;48.860;9.198;2022-10-04T05:36:48;5.67;;;4.93;;
8594;SDS011;4335;48.860;9.198;2022-10-04T05:39:35;6.40;;;4.90;;
8594;SDS011;4335;48.860;9.198;2022-10-04T05:42:13;6.33;;;4.90;;
8594;SDS011;4335;48.860;9.198;2022-10-04T05:44:48;7.47;;;4.80;;
8594;SDS011;4335;48.860;9.198;2022-10-04T05:47:16;7.33;;;4.80;;
8594;SDS011;4335;48.860;9.198;2022-10-04T05:49:48;6.33;;;4.33;;
8594;SDS011;4335;48.860;9.198;2022-10-04T05:52:24;4.47;;;4.07;;
8594;SDS011;4335;48.860;9.198;2022-10-04T05:57:47;5.27;;;4.13;;
8594;SDS011;4335;48.860;9.198;2022-10-04T06:00:35;4.73;;;4.23;;
8594;SDS011;4335;48.860;9.198;2022-10-04T06:03:16;5.07;;;4.17;;
8594;SDS011;4335;48.860;9.198;2022-10-04T06:06:04;4.70;;;4.27;;
8594;SDS011;4335;48.860;9.198;2022-10-04T06:08:44;5.00;;;4.50;;
8594;SDS011;4335;48.860;9.198;2022-10-04T06:11:29;5.77;;;4.53;;
8594;SDS011;4335;48.860;9.198;2022-10-04T06:14:20;4.07;;;3.73;;
8594;SDS011;4335;48.860;9.198;2022-10-04T06:17:16;5.33;;;4.33;;
8594;SDS011;4335;48.860;9.198;2022-10-04T06:23:04;5.37;;;4.70;;
8594;SDS011;4335;48.860;9.198;2022-10-04T06:25:43;9.70;;;7.33;;
8594;SDS011;4335;48.860;9.198;2022-10-04T06:28:14;8.97;;;6.30;;
8594;SDS011;4335;48.860;9.198;2022-10-04T06:33:51;6.90;;;5.90;;
8594;SDS011;4335;48.860;9.198;2022-10-04T06:36:34;6.70;;;5.37;;
8594;SDS011;4335;48.860;9.198;2022-10-04T06:39:28;7.50;;;5.70;;
8594;SDS011;4335;48.860;9.198;2022-10-04T06:42:12;9.57;;;5.27;;
8594;SDS011;4335;48.860;9.198;2022-10-04T06:45:02;10.73;;;5.80;;
8594;SDS011;4335;48.860;9.198;2022-10-04T06:48:01;9.73;;;5.80;;
8594;SDS011;4335;48.860;9.198;2022-10-04T06:50:39;7.33;;;6.50;;
8594;SDS011;4335;48.860;9.198;2022-10-04T06:53:25;7.87;;;5.73;;
8594;SDS011;4335;48.860;9.198;2022-10-04T06:56:06;8.07;;;5.77;;
8594;SDS011;4335;48.860;9.198;2022-10-04T07:01:53;15.43;;;7.37;;
8594;SDS011;4335;48.860;9.198;2022-10-04T07:04:27;12.43;;;6.00;;
8594;SDS011;4335;48.860;9.198;2022-10-04T07:07:10;10.83;;;6.63;;
8594;SDS011;4335;48.860;9.198;2022-10-04T07:10:13;19.03;;;7.63;;
8594;SDS011;4335;48.860;9.198;2022-10-04T07:12:53;14.27;;;7.13;;
8594;SDS011;4335;48.860;9.198;2022-10-04T07:15:32;25.70;;;10.43;;
8594;SDS011;4335;48.860;9.198;2022-10-04T07:18:07;26.43;;;10.03;;
8594;SDS011;4335;48.860;9.198;2022-10-04T07:20:48;20.73;;;9.17;;
8594;SDS011;4335;48.860;9.198;2022-10-04T07:23:25;22.50;;;8.20;;
8594;SDS011;4335;48.860;9.198;2022-10-04T07:25:56;22.97;;;8.70;;
8594;SDS011;4335;48.860;9.198;2022-10-04T07:28:28;18.70;;;8.00;;
8594;SDS011;4335;48.860;9.198;2022-10-04T07:31:20;18.17;;;9.37;;
8594;SDS011;4335;48.860;9.198;2022-10-04T07:33:52;14.50;;;7.67;;
8594;SDS011;4335;48.860;9.198;2022-10-04T07:36:23;14.83;;;6.90;;
8594;SDS011;4335;48.860;9.198;2022-10-04T07:38:55;8.73;;;5.70;;
8594;SDS011;4335;48.860;9.198;2022-10-04T07:41:33;9.23;;;4.97;;
8594;SDS011;4335;48.860;9.198;2022-10-04T07:44:12;5.70;;;4.80;;
8594;SDS011;4335;48.860;9.198;2022-10-04T07:46:47;9.20;;;5.67;;
8594;SDS011;4335;48.860;9.198;2022-10-04T07:49:18;7.37;;;4.90;;
8594;SDS011;4335;48.860;9.198;2022-10-04T07:51:58;5.77;;;4.70;;
8594;SDS011;4335;48.860;9.198;2022-10-04T07:54:34;14.10;;;7.87;;
8594;SDS011;4335;48.860;9.198;2022-10-04T07:57:10;17.63;;;6.03;;
8594;SDS011;4335;48.860;9.198;2022-10-04T07:59:47;29.00;;;7.17;;
8594;SDS011;4335;48.860;9.198;2022-10-04T08:02:26;14.53;;;6.33;;
8594;SDS011;4335;48.860;9.198;2022-10-04T08:05:08;20.93;;;6.07;;
8594;SDS011;4335;48.860;9.198;2022-10-04T08:07:55;11.47;;;5.70;;
8594;SDS011;4335;48.860;9.198;2022-10-04T08:10:33;16.07;;;5.73;;
8594;SDS011;4335;48.860;9.198;2022-10-04T08:13:15;11.70;;;6.20;;
8594;SDS011;4335;48.860;9.198;2022-10-04T08:15:50;13.37;;;4.67;;
8594;SDS011;4335;48.860;9.198;2022-10-04T08:18:25;14.30;;;5.80;;
8594;SDS011;4335;48.860;9.198;2022-10-04T08:21:04;11.33;;;5.10;;
8594;SDS011;4335;48.860;9.198;2022-10-04T08:23:43;24.50;;;6.47;;
8594;SDS011;4335;48.860;9.198;2022-10-04T08:26:39;21.77;;;7.93;;
8594;SDS011;4335;48.860;9.198;2022-10-04T08:29:30;9.57;;;5.00;;
8594;SDS011;4335;48.860;9.198;2022-10-04T08:35:20;11.07;;;4.77;;
8594;SDS011;4335;48.860;9.198;2022-10-04T08:38:04;18.03;;;6.43;;
8594;SDS011;4335;48.860;9.198;2022-10-04T08:47:04;23.27;;;6.40;;
8594;SDS011;4335;48.860;9.198;2022-10-04T08:53:23;13.37;;;5.77;;
8594;SDS011;4335;48.860;9.198;2022-10-04T08:56:12;9.90;;;5.00;;
8594;SDS011;4335;48.860;9.198;2022-10-04T08:58:50;8.53;;;5.60;;
8594;SDS011;4335;48.860;9.198;2022-10-04T09:04:34;22.70;;;7.63;;
8594;SDS011;4335;48.860;9.198;2022-10-04T09:07:34;18.80;;;6.43;;
8594;SDS011;4335;48.860;9.198;2022-10-04T09:10:34;22.07;;;8.30;;
8594;SDS011;4335;48.860;9.198;2022-10-04T09:16:12;19.33;;;7.47;;
8594;SDS011;4335;48.860;9.198;2022-10-04T09:18:48;22.83;;;7.77;;
8594;SDS011;4335;48.860;9.198;2022-10-04T09:21:20;9.00;;;5.33;;
8594;SDS011;4335;48.860;9.198;2022-10-04T09:24:11;14.73;;;6.60;;
8594;SDS011;4335;48.860;9.198;2022-10-04T09:27:06;16.17;;;5.80;;
8594;SDS011;4335;48.860;9.198;2022-10-04T09:30:02;10.53;;;5.27;;
8594;SDS011;4335;48.860;9.198;2022-10-04T09:35:38;11.23;;;4.77;;
8594;SDS011;4335;48.860;9.198;2022-10-04T09:38:30;6.37;;;4.40;;
8594;SDS011;4335;48.860;9.198;2022-10-04T09:41:23;9.10;;;5.17;;
8594;SDS011;4335;48.860;9.198;2022-10-04T09:44:27;13.37;;;5.57;;
8594;SDS011;4335;48.860;9.198;2022-10-04T09:47:28;13.53;;;4.97;;
8594;SDS011;4335;48.860;9.198;2022-10-04T09:53:04;13.30;;;4.40;;
8594;SDS011;4335;48.860;9.198;2022-10-04T09:55:50;9.37;;;3.90;;
8594;SDS011;4335;48.860;9.198;2022-10-04T09:58:44;8.57;;;3.80;;
8594;SDS011;4335;48.860;9.198;2022-10-04T10:01:38;9.07;;;3.30;;
8594;SDS011;4335;48.860;9.198;2022-10-04T10:04:20;7.87;;;3.17;;
8594;SDS011;4335;48.860;9.198;2022-10-04T10:10:02;7.40;;;3.87;;
8594;SDS011;4335;48.860;9.198;2022-10-04T10:13:05;17.43;;;5.13;;
8594;SDS011;4335;48.860;9.198;2022-10-04T10:16:10;8.23;;;3.47;;
8594;SDS011;4335;48.860;9.198;2022-10-04T10:19:04;7.57;;;3.17;;
8594;SDS011;4335;48.860;9.198;2022-10-04T10:21:55;4.68;;;3.08;;
8594;SDS011;4335;48.860;9.198;2022-10-04T10:24:39;5.97;;;2.88;;
8594;SDS011;4335;48.860;9.198;2022-10-04T10:27:38;6.18;;;2.70;;
8594;SDS011;4335;48.860;9.198;2022-10-04T10:30:16;8.70;;;2.75;;
8594;SDS011;4335;48.860;9.198;2022-10-04T10:39:21;4.30;;;2.90;;
8594;SDS011;4335;48.860;9.198;2022-10-04T10:45:17;7.03;;;2.63;;
8594;SDS011;4335;48.860;9.198;2022-10-04T10:47:52;5.85;;;3.90;;
8594;SDS011;4335;48.860;9.198;2022-10-04T10:59:47;5.10;;;2.77;;
8594;SDS011;4335;48.860;9.198;2022-10-04T11:02:41;4.97;;;3.17;;
8594;SDS011;4335;48.860;9.198;2022-10-04T11:11:55;5.47;;;2.60;;
8594;SDS011;4335;48.860;9.198;2022-10-04T11:14:50;7.20;;;2.70;;
8594;SDS011;4335;48.860;9.198;2022-10-04T11:17:38;3.30;;;2.63;;
8594;SDS011;4335;48.860;9.198;2022-10-04T11:20:34;5.50;;;3.17;;
8594;SDS011;4335;48.860;9.198;2022-10-04T11:23:25;7.27;;;3.73;;
8594;SDS011;4335;48.860;9.198;2022-10-04T11:26:48;6.87;;;3.20;;
8594;SDS011;4335;48.860;9.198;2022-10-04T11:29:31;13.37;;;3.67;;
8594;SDS011;4335;48.860;9.198;2022-10-04T11:32:21;6.97;;;3.47;;
8594;SDS011;4335;48.860;9.198;2022-10-04T11:38:50;7.47;;;2.90;;
8594;SDS011;4335;48.860;9.198;2022-10-04T11:41:28;8.40;;;3.87;;
8594;SDS011;4335;48.860;9.198;2022-10-04T11:44:23;8.33;;;3.10;;
8594;SDS011;4335;48.860;9.198;2022-10-04T11:47:07;10.13;;;3.67;;
8594;SDS011;4335;48.860;9.198;2022-10-04T11:50:05;12.40;;;3.70;;
8594;SDS011;4335;48.860;9.198;2022-10-04T11:52:52;10.80;;;4.60;;
8594;SDS011;4335;48.860;9.198;2022-10-04T11:55:55;10.87;;;4.10;;
8594;SDS011;4335;48.860;9.198;2022-10-04T11:58:49;8.37;;;3.57;;
8594;SDS011;4335;48.860;9.198;2022-10-04T12:01:32;8.57;;;3.37;;
8594;SDS011;4335;48.860;9.198;2022-10-04T12:04:19;7.70;;;3.50;;
8594;SDS011;4335;48.860;9.198;2022-10-04T12:07:23;6.83;;;3.13;;
8594;SDS011;4335;48.860;9.198;2022-10-04T12:10:08;4.03;;;2.73;;
8594;SDS011;4335;48.860;9.198;2022-10-04T12:18:58;10.13;;;3.80;;
8594;SDS011;4335;48.860;9.198;2022-10-04T12:24:47;13.57;;;4.30;;
8594;SDS011;4335;48.860;9.198;2022-10-04T12:30:42;5.70;;;2.80;;
8594;SDS011;4335;48.860;9.198;2022-10-04T12:33:34;5.50;;;3.20;;
8594;SDS011;4335;48.860;9.198;2022-10-04T12:36:10;6.07;;;2.83;;
8594;SDS011;4335;48.860;9.198;2022-10-04T12:38:51;8.30;;;3.23;;
8594;SDS011;4335;48.860;9.198;2022-10-04T12:41:31;13.77;;;4.40;;
8594;SDS011;4335;48.860;9.198;2022-10-04T12:44:21;6.10;;;2.90;;
8594;SDS011;4335;48.860;9.198;2022-10-04T12:47:02;12.13;;;3.70;;
8594;SDS011;4335;48.860;9.198;2022-10-04T12:49:47;10.17;;;3.60;;
8594;SDS011;4335;48.860;9.198;2022-10-04T12:52:21;6.97;;;3.37;;
8594;SDS011;4335;48.860;9.198;2022-10-04T12:54:55;8.57;;;3.43;;
8594;SDS011;4335;48.860;9.198;2022-10-04T12:57:37;11.40;;;5.47;;
8594;SDS011;4335;48.860;9.198;2022-10-04T13:00:13;6.97;;;2.93;;
8594;SDS011;4335;48.860;9.198;2022-10-04T13:02:47;9.10;;;3.97;;
8594;SDS011;4335;48.860;9.198;2022-10-04T13:05:40;8.63;;;3.20;;
8594;SDS011;4335;48.860;9.198;2022-10-04T13:08:19;4.57;;;3.13;;
8594;SDS011;4335;48.860;9.198;2022-10-04T13:10:56;14.40;;;6.03;;
8594;SDS011;4335;48.860;9.198;2022-10-04T13:14:06;9.20;;;3.10;;
8594;SDS011;4335;48.860;9.198;2022-10-04T13:17:00;21.77;;;7.20;;
8594;SDS011;4335;48.860;9.198;2022-10-04T13:19:37;12.07;;;4.33;;
8594;SDS011;4335;48.860;9.198;2022-10-04T13:22:31;9.00;;;3.97;;
8594;SDS011;4335;48.860;9.198;2022-10-04T13:25:13;7.93;;;4.00;;
8594;SDS011;4335;48.860;9.198;2022-10-04T13:27:51;11.13;;;4.13;;
8594;SDS011;4335;48.860;9.198;2022-10-04T13:30:28;6.63;;;3.30;;
8594;SDS011;4335;48.860;9.198;2022-10-04T13:33:02;6.00;;;2.90;;
8594;SDS011;4335;48.860;9.198;2022-10-04T13:35:44;10.83;;;4.60;;
8594;SDS011;4335;48.860;9.198;2022-10-04T13:41:19;25.73;;;6.03;;
8594;SDS011;4335;48.860;9.198;2022-10-04T13:44:04;16.87;;;5.13;;
8594;SDS011;4335;48.860;9.198;2022-10-04T13:46:52;11.40;;;3.87;;
8594;SDS011;4335;48.860;9.198;2022-10-04T13:49:35;10.37;;;4.47;;
8594;SDS011;4335;48.860;9.198;2022-10-04T13:52:24;7.23;;;3.13;;
8594;SDS011;4335;48.860;9.198;2022-10-04T13:55:25;9.80;;;4.67;;
8594;SDS011;4335;48.860;9.198;2022-10-04T13:58:23;10.47;;;4.67;;
8594;SDS011;4335;48.860;9.198;2022-10-04T14:01:20;16.13;;;5.13;;
8594;SDS011;4335;48.860;9.198;2022-10-04T14:04:24;6.73;;;2.10;;
8594;SDS011;4335;48.860;9.198;2022-10-04T14:07:27;8.50;;;3.50;;
8594;SDS011;4335;48.860;9.198;2022-10-04T14:10:34;4.90;;;2.20;;
8594;SDS011;4335;48.860;9.198;2022-10-04T14:19:29;17.47;;;3.97;;
8594;SDS011;4335;48.860;9.198;2022-10-04T14:22:34;5.87;;;2.70;;
8594;SDS011;4335;48.860;9.198;2022-10-04T14:32:06;26.70;;;5.50;;
8594;SDS011;4335;48.860;9.198;2022-10-04T14:40:44;4.23;;;2.20;;
8594;SDS011;4335;48.860;9.198;2022-10-04T14:46:35;3.10;;;1.83;;
8594;SDS011;4335;48.860;9.198;2022-10-04T14:49:13;3.13;;;2.00;;
8594;SDS011;4335;48.860;9.198;2022-10-04T14:54:53;5.83;;;1.83;;
8594;SDS011;4335;48.860;9.198;2022-10-04T14:57:37;4.20;;;2.30;;
8594;SDS011;4335;48.860;9.198;2022-10-04T15:00:19;4.10;;;1.77;;
8594;SDS011;4335;48.860;9.198;2022-10-04T15:05:58;2.87;;;2.00;;
8594;SDS011;4335;48.860;9.198;2022-10-04T15:08:43;5.70;;;2.80;;
8594;SDS011;4335;48.860;9.198;2022-10-04T15:11:36;3.40;;;2.07;;
8594;SDS011;4335;48.860;9.198;2022-10-04T15:14:22;3.30;;;1.80;;
8594;SDS011;4335;48.860;9.198;2022-10-04T15:17:00;3.33;;;2.00;;
8594;SDS011;4335;48.860;9.198;2022-10-04T15:19:30;2.20;;;1.50;;
8594;SDS011;4335;48.860;9.198;2022-10-04T15:22:06;3.20;;;1.77;;
8594;SDS011;4335;48.860;9.198;2022-10-04T15:24:46;3.33;;;2.20;;
8594;SDS011;4335;48.860;9.198;2022-10-04T15:30:20;4.10;;;1.90;;
8594;SDS011;4335;48.860;9.198;2022-10-04T15:36:14;2.97;;;1.93;;
8594;SDS011;4335;48.860;9.198;2022-10-04T15:39:07;4.97;;;2.00;;
8594;SDS011;4335;48.860;9.198;2022-10-04T15:41:53;2.60;;;1.90;;
8594;SDS011;4335;48.860;9.198;2022-10-04T15:44:38;3.23;;;1.70;;
8594;SDS011;4335;48.860;9.198;2022-10-04T15:47:22;1.97;;;1.77;;
8594;SDS011;4335;48.860;9.198;2022-10-04T15:50:09;2.00;;;1.80;;
8594;SDS011;4335;48.860;9.198;2022-10-04T15:53:01;2.73;;;2.20;;
8594;SDS011;4335;48.860;9.198;2022-10-04T15:55:49;2.47;;;2.00;;
8594;SDS011;4335;48.860;9.198;2022-10-04T16:01:52;2.77;;;1.60;;
8594;SDS011;4335;48.860;9.198;2022-10-04T16:04:42;3.30;;;1.77;;
8594;SDS011;4335;48.860;9.198;2022-10-04T16:07:22;3.30;;;1.80;;
8594;SDS011;4335;48.860;9.198;2022-10-04T16:10:17;4.00;;;2.27;;
8594;SDS011;4335;48.860;9.198;2022-10-04T16:19:20;3.40;;;2.00;;
8594;SDS011;4335;48.860;9.198;2022-10-04T16:22:07;2.80;;;1.87;;
8594;SDS011;4335;48.860;9.198;2022-10-04T16:24:43;5.23;;;1.93;;
8594;SDS011;4335;48.860;9.198;2022-10-04T16:30:28;2.83;;;1.60;;
8594;SDS011;4335;48.860;9.198;2022-10-04T16:33:27;3.10;;;1.83;;
8594;SDS011;4335;48.860;9.198;2022-10-04T16:36:05;6.00;;;2.53;;
8594;SDS011;4335;48.860;9.198;2022-10-04T16:38:35;4.10;;;1.67;;
8594;SDS011;4335;48.860;9.198;2022-10-04T16:41:33;3.63;;;1.90;;
8594;SDS011;4335;48.860;9.198;2022-10-04T16:44:07;3.70;;;1.80;;
8594;SDS011;4335;48.860;9.198;2022-10-04T16:46:53;2.87;;;1.77;;
8594;SDS011;4335;48.860;9.198;2022-10-04T16:49:25;4.17;;;1.90;;
8594;SDS011;4335;48.860;9.198;2022-10-04T16:52:10;3.97;;;2.67;;
8594;SDS011;4335;48.860;9.198;2022-10-04T16:54:55;2.53;;;1.63;;
8594;SDS011;4335;48.860;9.198;2022-10-04T17:07:22;4.33;;;2.10;;
8594;SDS011;4335;48.860;9.198;2022-10-04T17:10:14;5.43;;;3.17;;
8594;SDS011;4335;48.860;9.198;2022-10-04T17:12:46;3.20;;;1.90;;
8594;SDS011;4335;48.860;9.198;2022-10-04T17:15:23;5.53;;;2.03;;
8594;SDS011;4335;48.860;9.198;2022-10-04T17:17:59;4.73;;;2.40;;
8594;SDS011;4335;48.860;9.198;2022-10-04T17:20:42;4.43;;;2.93;;
8594;SDS011;4335;48.860;9.198;2022-10-04T17:23:19;5.47;;;2.17;;
8594;SDS011;4335;48.860;9.198;2022-10-04T17:26:05;2.10;;;1.90;;
8594;SDS011;4335;48.860;9.198;2022-10-04T17:28:42;3.60;;;1.90;;
8594;SDS011;4335;48.860;9.198;2022-10-04T17:31:14;3.60;;;2.50;;
8594;SDS011;4335;48.860;9.198;2022-10-04T17:33:46;6.87;;;3.13;;
8594;SDS011;4335;48.860;9.198;2022-10-04T17:36:24;4.30;;;2.30;;
8594;SDS011;4335;48.860;9.198;2022-10-04T17:42:08;4.20;;;2.47;;
8594;SDS011;4335;48.860;9.198;2022-10-04T17:44:50;3.47;;;2.60;;
8594;SDS011;4335;48.860;9.198;2022-10-04T17:47:25;4.70;;;2.50;;
8594;SDS011;4335;48.860;9.198;2022-10-04T17:50:20;3.43;;;2.70;;
8594;SDS011;4335;48.860;9.198;2022-10-04T17:53:11;4.00;;;2.43;;
8594;SDS011;4335;48.860;9.198;2022-10-04T17:56:02;4.43;;;2.87;;
8594;SDS011;4335;48.860;9.198;2022-10-04T17:58:36;4.03;;;2.90;;
8594;SDS011;4335;48.860;9.198;2022-10-04T18:01:08;3.63;;;2.90;;
8594;SDS011;4335;48.860;9.198;2022-10-04T18:03:39;3.90;;;2.60;;
8594;SDS011;4335;48.860;9.198;2022-10-04T18:06:16;4.97;;;2.50;;
8594;SDS011;4335;48.860;9.198;2022-10-04T18:08:53;2.83;;;2.60;;
8594;SDS011;4335;48.860;9.198;2022-10-04T18:11:23;4.23;;;2.97;;
8594;SDS011;4335;48.860;9.198;2022-10-04T18:13:56;5.80;;;3.13;;
8594;SDS011;4335;48.860;9.198;2022-10-04T18:16:27;3.07;;;2.67;;
8594;SDS011;4335;48.860;9.198;2022-10-04T18:18:55;4.07;;;3.50;;
8594;SDS011;4335;48.860;9.198;2022-10-04T18:21:23;7.93;;;3.40;;
8594;SDS011;4335;48.860;9.198;2022-10-04T18:23:52;4.47;;;2.97;;
8594;SDS011;4335;48.860;9.198;2022-10-04T18:26:21;4.93;;;3.23;;
8594;SDS011;4335;48.860;9.198;2022-10-04T18:28:49;4.50;;;2.90;;
8594;SDS011;4335;48.860;9.198;2022-10-04T18:31:19;4.77;;;3.30;;
8594;SDS011;4335;48.860;9.198;2022-10-04T18:33:52;5.50;;;3.43;;
8594;SDS011;4335;48.860;9.198;2022-10-04T18:36:19;5.63;;;3.37;;
8594;SDS011;4335;48.860;9.198;2022-10-04T18:38:57;4.60;;;3.07;;
8594;SDS011;4335;48.860;9.198;2022-10-04T18:41:28;8.20;;;4.03;;
8594;SDS011;4335;48.860;9.198;2022-10-04T18:44:11;4.37;;;2.97;;
8594;SDS011;4335;48.860;9.198;2022-10-04T18:46:39;5.47;;;3.73;;
8594;SDS011;4335;48.860;9.198;2022-10-04T18:49:12;5.23;;;4.00;;
8594;SDS011;4335;48.860;9.198;2022-10-04T18:51:42;4.80;;;3.77;;
8594;SDS011;4335;48.860;9.198;2022-10-04T18:54:21;7.10;;;3.63;;
8594;SDS011;4335;48.860;9.198;2022-10-04T18:56:58;5.47;;;3.93;;
8594;SDS011;4335;48.860;9.198;2022-10-04T18:59:32;4.77;;;3.60;;